aviador You're here:

KADF Decoded Metar

in
Report Time2017-08-22 21:56:00
UTC Time2017-08-22 22:26:31
Flight Rules vfr VFR
WindCalm
Visibility9999 m
Phenomena:N/A
Clouds:Few 095 Hf
Expected CloudBase > 800 ft AGL from Temp-Dew spread
CeilingNone
Temp27°C
Dew Point25°C (89% RH)
Heat Index30.6°C
QNH1015 hPa
Raw Report
KADF 222156Z AUTO 00000KT 10SM FEW095 27/25 A2998 RMK AO2
TSE30RAE52 SLP152 P0007 T02670250=

Extra information for KADF:More info

Social comments